createdAt,value
2023-05-15T00:02:02.301Z,12.13
2023-05-15T00:04:29.202Z,12.87
2023-05-15T00:06:56.158Z,13.73
2023-05-15T00:09:23.094Z,12.60
2023-05-15T00:11:51.411Z,12.37
2023-05-15T00:14:18.963Z,13.80
2023-05-15T00:16:45.826Z,14.00
2023-05-15T00:19:12.823Z,13.23
2023-05-15T00:21:39.802Z,13.90
2023-05-15T00:24:06.685Z,13.20
2023-05-15T00:26:33.645Z,14.00
2023-05-15T00:29:00.695Z,14.23
2023-05-15T00:31:27.568Z,13.13
2023-05-15T00:33:54.479Z,13.43
2023-05-15T00:36:22.299Z,14.90
2023-05-15T00:38:49.102Z,13.13
2023-05-15T00:41:16.838Z,13.67
2023-05-15T00:43:44.125Z,14.53
2023-05-15T00:46:13.458Z,14.07
2023-05-15T00:48:42.302Z,14.67
2023-05-15T00:51:10.062Z,15.20
2023-05-15T00:53:38.865Z,14.93
2023-05-15T00:56:07.263Z,15.53
2023-05-15T00:58:34.466Z,15.17
2023-05-15T01:01:01.283Z,15.63
2023-05-15T01:03:28.979Z,15.13
2023-05-15T01:05:56.131Z,14.83
2023-05-15T01:08:50.015Z,15.20
2023-05-15T01:11:18.043Z,16.93
2023-05-15T01:13:45.037Z,16.43
2023-05-15T01:16:12.150Z,15.53
2023-05-15T01:18:39.110Z,16.07
2023-05-15T01:21:38.606Z,16.70
2023-05-15T01:24:23.657Z,17.80
2023-05-15T01:27:02.384Z,17.77
2023-05-15T01:29:42.899Z,17.40
2023-05-15T01:32:19.142Z,17.33
2023-05-15T01:34:58.243Z,18.33
2023-05-15T01:37:28.829Z,18.33
2023-05-15T01:40:02.729Z,18.00
2023-05-15T01:42:36.346Z,18.03
2023-05-15T01:45:08.432Z,17.23
2023-05-15T01:47:46.764Z,18.37
2023-05-15T01:50:16.232Z,18.27
2023-05-15T01:52:50.960Z,17.40
2023-05-15T01:55:20.832Z,17.77
2023-05-15T01:57:50.614Z,18.03
2023-05-15T02:00:18.748Z,18.10
2023-05-15T02:02:47.199Z,17.20
2023-05-15T02:05:15.016Z,16.57
2023-05-15T02:07:46.054Z,17.63
2023-05-15T02:10:13.559Z,19.13
2023-05-15T02:12:41.906Z,18.80
2023-05-15T02:15:10.822Z,18.43
2023-05-15T02:17:38.446Z,19.20
2023-05-15T02:20:08.835Z,18.83
2023-05-15T02:22:36.030Z,19.80
2023-05-15T02:25:06.061Z,19.47
2023-05-15T02:27:55.266Z,20.53
2023-05-15T02:31:09.570Z,19.57
2023-05-15T02:33:46.666Z,20.60
2023-05-15T02:36:21.020Z,21.77
2023-05-15T02:38:50.839Z,21.50
2023-05-15T02:41:18.503Z,22.60
2023-05-15T02:43:49.309Z,22.27
2023-05-15T02:46:18.037Z,23.00
2023-05-15T02:48:46.143Z,23.60
2023-05-15T02:51:13.899Z,22.13
2023-05-15T02:53:42.379Z,23.20
2023-05-15T02:56:10.319Z,24.17
2023-05-15T02:58:39.006Z,23.67
2023-05-15T03:01:06.339Z,24.77
2023-05-15T03:03:33.276Z,24.60
2023-05-15T03:06:03.255Z,24.40
2023-05-15T03:08:30.393Z,23.90
2023-05-15T03:10:58.174Z,25.10
2023-05-15T03:13:25.150Z,25.73
2023-05-15T03:15:53.062Z,25.33
2023-05-15T03:18:19.899Z,23.93
2023-05-15T03:20:49.362Z,25.23
2023-05-15T03:23:16.364Z,23.50
2023-05-15T03:25:43.301Z,23.50
2023-05-15T03:28:10.261Z,25.17
2023-05-15T03:30:37.396Z,24.47
2023-05-15T03:33:04.402Z,25.73
2023-05-15T03:35:32.727Z,26.50
2023-05-15T03:37:59.805Z,25.47
2023-05-15T03:40:26.579Z,24.87
2023-05-15T03:42:53.797Z,25.33
2023-05-15T03:45:21.541Z,25.97
2023-05-15T03:47:48.910Z,25.73
2023-05-15T03:50:16.053Z,27.17
2023-05-15T03:52:43.012Z,25.13
2023-05-15T03:55:10.065Z,25.30
2023-05-15T03:57:37.207Z,25.30
2023-05-15T04:00:10.336Z,24.63
2023-05-15T04:02:38.374Z,24.80
2023-05-15T04:05:06.009Z,24.03
2023-05-15T04:07:36.895Z,24.40
2023-05-15T04:10:04.655Z,25.17
2023-05-15T04:12:35.914Z,24.33
2023-05-15T04:15:16.686Z,23.30
2023-05-15T04:17:44.938Z,23.37
2023-05-15T04:20:15.148Z,22.47
2023-05-15T04:22:43.765Z,21.57
2023-05-15T04:25:11.756Z,20.93
2023-05-15T04:27:39.077Z,17.63
2023-05-15T04:30:18.642Z,15.80
2023-05-15T04:32:49.009Z,14.17
2023-05-15T04:35:16.185Z,12.33
2023-05-15T04:37:45.973Z,10.90
2023-05-15T04:40:15.146Z,10.23
2023-05-15T04:42:42.372Z,10.00
2023-05-15T04:45:09.554Z,9.23
2023-05-15T04:47:36.866Z,8.77
2023-05-15T04:50:04.210Z,9.03
2023-05-15T04:52:31.182Z,8.30
2023-05-15T04:54:58.439Z,8.03
2023-05-15T04:57:26.078Z,7.60
2023-05-15T04:59:53.205Z,7.80
2023-05-15T05:02:23.400Z,8.00
2023-05-15T05:04:50.872Z,7.43
2023-05-15T05:07:17.924Z,7.50
2023-05-15T05:09:45.308Z,7.47
2023-05-15T05:12:12.221Z,6.70
2023-05-15T05:14:40.899Z,6.00
2023-05-15T05:17:08.348Z,6.20
2023-05-15T05:19:35.404Z,6.50
2023-05-15T05:22:05.577Z,6.23
2023-05-15T05:24:33.086Z,6.40
2023-05-15T05:27:00.602Z,5.57
2023-05-15T05:29:27.868Z,5.67
2023-05-15T05:31:55.000Z,5.70
2023-05-15T05:34:22.484Z,5.40
2023-05-15T05:36:50.246Z,5.47
2023-05-15T05:39:17.665Z,5.30
2023-05-15T05:41:45.090Z,4.97
2023-05-15T05:44:12.092Z,5.10
2023-05-15T05:46:39.177Z,4.80
2023-05-15T05:49:06.236Z,5.20
2023-05-15T05:51:33.399Z,5.57
2023-05-15T05:54:00.258Z,5.53
2023-05-15T05:56:27.443Z,5.53
2023-05-15T05:58:54.784Z,5.30
2023-05-15T06:01:21.826Z,4.87
2023-05-15T06:03:48.977Z,5.70
2023-05-15T06:06:15.879Z,5.47
2023-05-15T06:08:42.817Z,5.27
2023-05-15T06:11:09.978Z,5.10
2023-05-15T06:13:37.248Z,4.27
2023-05-15T06:16:04.360Z,5.43
2023-05-15T06:18:31.389Z,5.00
2023-05-15T06:21:00.416Z,4.50
2023-05-15T06:23:28.066Z,3.90
2023-05-15T06:25:55.337Z,3.97
2023-05-15T06:28:22.238Z,4.70
2023-05-15T06:30:49.302Z,4.53
2023-05-15T06:33:16.174Z,4.13
2023-05-15T06:35:43.140Z,3.83
2023-05-15T06:38:12.282Z,3.93
2023-05-15T06:40:39.199Z,4.40
2023-05-15T06:43:06.330Z,4.50
2023-05-15T06:45:33.251Z,4.50
2023-05-15T06:48:01.824Z,4.63
2023-05-15T06:50:29.296Z,4.35
2023-05-15T06:52:56.174Z,4.70
2023-05-15T06:55:23.263Z,4.22
2023-05-15T06:57:50.654Z,4.20
2023-05-15T07:00:17.908Z,4.40
2023-05-15T07:02:44.777Z,4.50
2023-05-15T07:05:11.951Z,4.43
2023-05-15T07:07:39.202Z,3.90
2023-05-15T07:10:08.742Z,4.07
2023-05-15T07:12:35.586Z,4.20
2023-05-15T07:15:02.637Z,4.10
2023-05-15T07:17:31.846Z,4.20
2023-05-15T07:19:58.735Z,3.60
2023-05-15T07:22:28.733Z,3.67
2023-05-15T07:24:55.498Z,4.47
2023-05-15T07:27:22.599Z,3.97
2023-05-15T07:29:49.452Z,4.10
2023-05-15T07:32:16.339Z,4.05
2023-05-15T07:34:43.389Z,3.95
2023-05-15T07:37:10.361Z,3.75
2023-05-15T07:39:37.397Z,3.60
2023-05-15T07:42:04.452Z,3.40
2023-05-15T07:44:31.436Z,2.90
2023-05-15T07:47:02.562Z,3.20
2023-05-15T07:49:29.741Z,2.90
2023-05-15T07:51:56.755Z,3.33
2023-05-15T07:54:23.763Z,3.10
2023-05-15T07:56:50.625Z,3.92
2023-05-15T07:59:17.575Z,3.00
2023-05-15T08:01:44.453Z,3.30
2023-05-15T08:04:12.277Z,3.42
2023-05-15T08:06:39.899Z,3.65
2023-05-15T08:09:07.029Z,4.15
2023-05-15T08:11:33.849Z,3.70
2023-05-15T08:14:00.767Z,3.15
2023-05-15T08:16:28.220Z,3.40
2023-05-15T08:18:58.977Z,2.97
2023-05-15T08:21:26.117Z,3.05
2023-05-15T08:23:54.818Z,3.05
2023-05-15T08:26:21.992Z,2.40
2023-05-15T08:28:49.176Z,2.90
2023-05-15T08:31:16.160Z,2.47
2023-05-15T08:33:43.272Z,2.20
2023-05-15T08:36:10.338Z,2.05
2023-05-15T08:38:37.223Z,2.20
2023-05-15T08:41:11.248Z,2.28
2023-05-15T08:43:39.603Z,2.13
2023-05-15T08:46:07.657Z,2.10
2023-05-15T08:48:38.246Z,2.10
2023-05-15T08:51:10.310Z,1.90
2023-05-15T08:53:37.749Z,1.60
2023-05-15T08:56:05.110Z,1.70
2023-05-15T08:58:32.985Z,1.95
2023-05-15T09:01:00.485Z,2.20
2023-05-15T09:03:27.822Z,1.60
2023-05-15T09:05:55.409Z,2.10
2023-05-15T09:08:24.215Z,2.00
2023-05-15T09:10:53.036Z,2.05
2023-05-15T09:13:20.076Z,2.00
2023-05-15T09:15:48.443Z,2.05
2023-05-15T09:18:16.745Z,2.00
2023-05-15T09:20:43.753Z,1.90
2023-05-15T09:23:27.613Z,1.88
2023-05-15T09:25:57.043Z,1.60
2023-05-15T09:28:28.246Z,1.80
2023-05-15T09:30:59.596Z,2.03
2023-05-15T09:33:35.531Z,1.83
2023-05-15T09:36:03.735Z,1.90
2023-05-15T09:38:33.523Z,2.10
2023-05-15T09:41:07.585Z,2.03
2023-05-15T09:43:37.106Z,2.15
2023-05-15T09:46:04.037Z,2.28
2023-05-15T09:48:33.867Z,2.20
2023-05-15T09:51:01.436Z,2.28
2023-05-15T09:53:30.044Z,2.38
2023-05-15T09:55:57.152Z,2.30
2023-05-15T09:58:24.080Z,2.35
2023-05-15T10:00:50.858Z,2.40
2023-05-15T10:03:22.110Z,2.38
2023-05-15T10:05:49.258Z,2.08
2023-05-15T10:08:16.892Z,2.60
2023-05-15T10:10:45.103Z,2.70
2023-05-15T10:13:12.437Z,2.63
2023-05-15T10:15:40.098Z,2.50
2023-05-15T10:18:08.093Z,2.92
2023-05-15T10:20:38.293Z,2.58
2023-05-15T10:23:06.767Z,2.55
2023-05-15T10:25:59.450Z,2.30
2023-05-15T10:28:27.690Z,2.58
2023-05-15T10:30:57.928Z,2.50
2023-05-15T10:33:25.818Z,3.08
2023-05-15T10:35:53.691Z,2.80
2023-05-15T10:38:21.588Z,2.80
2023-05-15T10:40:49.039Z,3.10
2023-05-15T10:43:16.076Z,2.80
2023-05-15T10:45:44.361Z,3.53
2023-05-15T10:48:12.701Z,3.42
2023-05-15T10:50:40.090Z,2.78
2023-05-15T10:53:09.326Z,3.50
2023-05-15T10:55:37.047Z,2.97
2023-05-15T10:58:10.246Z,3.88
2023-05-15T11:00:45.082Z,3.75
2023-05-15T11:03:15.987Z,3.85
2023-05-15T11:06:11.376Z,3.88
2023-05-15T11:08:40.122Z,4.07
2023-05-15T11:11:07.138Z,4.78
2023-05-15T11:14:04.778Z,4.50
2023-05-15T11:16:54.706Z,4.53
2023-05-15T11:19:57.966Z,4.75
2023-05-15T11:22:39.127Z,4.60
2023-05-15T11:25:12.335Z,4.50
2023-05-15T11:27:46.597Z,4.40
2023-05-15T11:30:23.160Z,3.78
2023-05-15T11:32:59.110Z,3.97
2023-05-15T11:35:38.782Z,4.25
2023-05-15T11:38:16.883Z,4.10
2023-05-15T11:41:16.785Z,4.90
2023-05-15T11:43:43.720Z,4.53
2023-05-15T11:46:13.053Z,4.82
2023-05-15T11:48:41.785Z,5.13
2023-05-15T11:51:26.286Z,5.50
2023-05-15T11:53:54.876Z,5.30
2023-05-15T11:56:23.757Z,7.40
2023-05-15T11:58:52.117Z,7.20
2023-05-15T12:01:19.231Z,6.23
2023-05-15T12:03:49.314Z,6.37
2023-05-15T12:06:16.983Z,6.90
2023-05-15T12:08:44.388Z,7.30
2023-05-15T12:11:13.536Z,6.77
2023-05-15T12:13:40.622Z,6.33
2023-05-15T12:16:07.668Z,7.13
2023-05-15T12:18:35.002Z,7.27
2023-05-15T12:21:02.132Z,7.47
2023-05-15T12:23:29.089Z,7.73
2023-05-15T12:26:01.143Z,7.30
2023-05-15T12:28:29.517Z,7.27
2023-05-15T12:30:57.750Z,7.37
2023-05-15T12:33:25.291Z,7.80
2023-05-15T12:35:59.935Z,7.70
2023-05-15T12:38:29.161Z,7.93
2023-05-15T12:40:57.413Z,7.93
2023-05-15T12:43:26.215Z,7.47
2023-05-15T12:45:54.857Z,8.00
2023-05-15T12:48:22.545Z,7.50
2023-05-15T12:50:50.419Z,7.93
2023-05-15T12:53:18.124Z,7.70
2023-05-15T12:55:47.080Z,7.40
2023-05-15T12:58:16.084Z,7.43
2023-05-15T13:00:46.479Z,8.30
2023-05-15T13:03:14.315Z,6.97
2023-05-15T13:05:46.003Z,8.00
2023-05-15T13:08:18.162Z,7.70
2023-05-15T13:10:46.557Z,7.10
2023-05-15T13:13:13.973Z,7.27
2023-05-15T13:15:43.933Z,6.70
2023-05-15T13:18:15.749Z,7.20
2023-05-15T13:20:43.828Z,7.07
2023-05-15T13:23:12.414Z,8.23
2023-05-15T13:25:39.261Z,8.53
2023-05-15T13:28:07.716Z,7.93
2023-05-15T13:30:35.865Z,8.57
2023-05-15T13:33:03.175Z,9.17
2023-05-15T13:35:30.198Z,9.33
2023-05-15T13:37:57.526Z,9.07
2023-05-15T13:40:24.789Z,8.60
2023-05-15T13:42:51.872Z,8.90
2023-05-15T13:45:19.082Z,9.70
2023-05-15T13:47:46.103Z,8.13
2023-05-15T13:50:15.422Z,9.27
2023-05-15T13:52:43.973Z,9.37
2023-05-15T13:55:11.606Z,8.93
2023-05-15T13:57:42.851Z,9.37
2023-05-15T14:00:15.295Z,9.03
2023-05-15T14:02:44.008Z,10.63
2023-05-15T14:05:13.113Z,10.03
2023-05-15T14:07:40.692Z,9.33
2023-05-15T14:10:08.483Z,10.60
2023-05-15T14:12:36.274Z,10.67
2023-05-15T14:15:03.423Z,10.30
2023-05-15T14:17:32.620Z,10.83
2023-05-15T14:19:59.597Z,12.00
2023-05-15T14:22:26.593Z,12.10
2023-05-15T14:24:53.724Z,12.27
2023-05-15T14:27:21.156Z,11.40
2023-05-15T14:29:49.454Z,12.27
2023-05-15T14:32:17.385Z,11.63
2023-05-15T14:34:44.654Z,12.43
2023-05-15T14:37:11.862Z,11.60
2023-05-15T14:39:39.086Z,11.63
2023-05-15T14:42:06.616Z,11.13
2023-05-15T14:44:34.294Z,10.63
2023-05-15T14:47:10.590Z,10.67
2023-05-15T14:49:37.981Z,10.07
2023-05-15T14:52:07.552Z,9.87
2023-05-15T14:54:35.984Z,10.10
2023-05-15T14:57:03.861Z,8.60
2023-05-15T14:59:31.567Z,8.83
2023-05-15T15:01:58.731Z,8.90
2023-05-15T15:04:26.924Z,7.83
2023-05-15T15:06:57.181Z,7.40
2023-05-15T15:09:26.414Z,8.10
2023-05-15T15:11:54.673Z,5.43
2023-05-15T15:14:21.554Z,5.40
2023-05-15T15:16:48.659Z,5.53
2023-05-15T15:19:18.186Z,5.90
2023-05-15T15:21:46.960Z,6.20
2023-05-15T15:24:14.011Z,6.07
2023-05-15T15:26:41.532Z,5.67
2023-05-15T15:29:08.585Z,6.00
2023-05-15T15:31:35.981Z,5.73
2023-05-15T15:34:05.302Z,5.43
2023-05-15T15:36:33.080Z,5.50
2023-05-15T15:38:59.968Z,6.10
2023-05-15T15:41:29.968Z,5.60
2023-05-15T15:43:56.875Z,5.97
2023-05-15T15:46:23.833Z,5.30
2023-05-15T15:48:51.238Z,5.63
2023-05-15T15:51:18.154Z,4.90
2023-05-15T15:53:45.313Z,4.93
2023-05-15T15:56:12.192Z,5.27
2023-05-15T15:58:39.011Z,5.10
2023-05-15T16:01:06.141Z,4.80
2023-05-15T16:03:33.691Z,4.53
2023-05-15T16:06:00.700Z,4.90
2023-05-15T16:08:27.981Z,5.00
2023-05-15T16:10:55.311Z,4.97
2023-05-15T16:13:22.316Z,5.00
2023-05-15T16:15:49.297Z,4.87
2023-05-15T16:18:16.992Z,4.87
2023-05-15T16:20:44.031Z,5.47
2023-05-15T16:23:15.217Z,5.13
2023-05-15T16:25:45.471Z,4.60
2023-05-15T16:28:12.398Z,4.80
2023-05-15T16:30:48.822Z,5.60
2023-05-15T16:33:18.234Z,5.60
2023-05-15T16:35:46.002Z,5.13
2023-05-15T16:38:13.643Z,5.10
2023-05-15T16:40:40.881Z,5.20
2023-05-15T16:43:08.027Z,5.27
2023-05-15T16:45:35.072Z,5.30
2023-05-15T16:48:02.197Z,5.40
2023-05-15T16:50:31.295Z,5.67
2023-05-15T16:52:58.426Z,5.73
2023-05-15T16:55:25.550Z,4.63
2023-05-15T16:57:52.407Z,5.47
2023-05-15T17:00:21.308Z,4.93
2023-05-15T17:02:49.069Z,4.53
2023-05-15T17:05:16.794Z,4.97
2023-05-15T17:07:44.814Z,4.47
2023-05-15T17:10:12.668Z,4.63
2023-05-15T17:12:40.115Z,4.60
2023-05-15T17:15:08.004Z,4.57
2023-05-15T17:17:35.310Z,4.87
2023-05-15T17:20:03.254Z,4.97
2023-05-15T17:22:30.718Z,4.30
2023-05-15T17:24:58.088Z,4.83
2023-05-15T17:27:25.304Z,5.40
2023-05-15T17:29:52.457Z,5.27
2023-05-15T17:32:19.761Z,5.20
2023-05-15T17:34:47.336Z,5.20
2023-05-15T17:37:14.653Z,5.17
2023-05-15T17:39:42.155Z,5.80
2023-05-15T17:42:08.984Z,5.93
2023-05-15T17:44:35.824Z,5.80
2023-05-15T17:47:02.841Z,5.93
2023-05-15T17:49:30.056Z,5.90
2023-05-15T17:51:57.137Z,5.70
2023-05-15T17:54:24.367Z,6.03
2023-05-15T17:56:51.466Z,6.30
2023-05-15T17:59:18.297Z,6.03
2023-05-15T18:01:45.530Z,6.10
2023-05-15T18:04:12.557Z,6.07
2023-05-15T18:06:39.514Z,6.27
2023-05-15T18:09:06.608Z,6.33
2023-05-15T18:11:33.625Z,6.57
2023-05-15T18:14:00.641Z,7.93
2023-05-15T18:16:28.359Z,7.60
2023-05-15T18:18:55.994Z,7.27
2023-05-15T18:21:22.957Z,7.87
2023-05-15T18:23:50.123Z,8.20
2023-05-15T18:26:17.292Z,7.63
2023-05-15T18:28:44.249Z,7.60
2023-05-15T18:31:11.245Z,7.13
2023-05-15T18:33:39.796Z,7.30
2023-05-15T18:36:07.737Z,6.93
2023-05-15T18:38:35.034Z,6.90
2023-05-15T18:41:03.170Z,6.60
2023-05-15T18:43:30.133Z,6.23
2023-05-15T18:45:57.199Z,6.40
2023-05-15T18:48:24.174Z,7.17
2023-05-15T18:50:53.091Z,6.67
2023-05-15T18:53:22.082Z,6.73
2023-05-15T18:55:49.263Z,6.50
2023-05-15T18:58:16.304Z,6.90
2023-05-15T19:00:43.373Z,7.00
2023-05-15T19:03:11.072Z,6.47
2023-05-15T19:05:38.160Z,7.17
2023-05-15T19:08:05.312Z,7.73
2023-05-15T19:10:32.280Z,7.53
2023-05-15T19:12:59.053Z,7.27
2023-05-15T19:15:26.729Z,7.50
2023-05-15T19:17:53.651Z,8.30
2023-05-15T19:20:21.147Z,8.50
2023-05-15T19:22:48.442Z,9.70
2023-05-15T19:25:15.485Z,9.57
2023-05-15T19:27:42.499Z,8.57
2023-05-15T19:30:10.218Z,8.53
2023-05-15T19:32:37.439Z,7.67
2023-05-15T19:35:05.867Z,8.80
2023-05-15T19:37:32.722Z,9.10
2023-05-15T19:39:59.524Z,9.07
2023-05-15T19:42:26.785Z,8.63
2023-05-15T19:44:53.755Z,8.80
2023-05-15T19:47:21.072Z,7.93
2023-05-15T19:49:48.056Z,8.10
2023-05-15T19:52:16.536Z,8.10
2023-05-15T19:54:44.369Z,8.77
2023-05-15T19:57:11.399Z,7.63
2023-05-15T19:59:38.404Z,7.60
2023-05-15T20:02:09.370Z,8.20
2023-05-15T20:04:37.289Z,7.73
2023-05-15T20:07:04.556Z,7.20
2023-05-15T20:09:31.400Z,6.90
2023-05-15T20:11:58.536Z,6.80
2023-05-15T20:14:25.490Z,6.90
2023-05-15T20:16:53.530Z,7.07
2023-05-15T20:19:23.364Z,7.27
2023-05-15T20:21:52.876Z,7.20
2023-05-15T20:24:19.875Z,7.07
2023-05-15T20:26:46.662Z,7.13
2023-05-15T20:29:13.709Z,7.20
2023-05-15T20:31:40.781Z,6.97
2023-05-15T20:34:08.695Z,7.50
2023-05-15T20:36:39.023Z,7.37
2023-05-15T20:39:07.666Z,7.20
2023-05-15T20:41:34.792Z,7.07
2023-05-15T20:44:01.903Z,7.10
2023-05-15T20:46:30.236Z,6.40
2023-05-15T20:48:57.784Z,6.20
2023-05-15T20:51:25.037Z,5.63
2023-05-15T20:53:52.012Z,5.90
2023-05-15T20:56:19.310Z,5.47
2023-05-15T20:58:46.637Z,5.73
2023-05-15T21:01:13.831Z,5.80
2023-05-15T21:03:41.199Z,5.90
2023-05-15T21:06:08.994Z,6.30
2023-05-15T21:08:36.131Z,6.00
2023-05-15T21:11:02.971Z,6.23
2023-05-15T21:13:29.972Z,5.50
2023-05-15T21:15:56.866Z,5.17
2023-05-15T21:18:24.069Z,5.63
2023-05-15T21:20:51.128Z,5.00
2023-05-15T21:23:18.450Z,5.73
2023-05-15T21:25:45.441Z,5.33
2023-05-15T21:28:12.295Z,5.70
2023-05-15T21:30:39.338Z,5.93
2023-05-15T21:33:06.546Z,5.30
2023-05-15T21:35:33.493Z,5.50
2023-05-15T21:38:00.714Z,5.33
2023-05-15T21:40:28.000Z,5.03
2023-05-15T21:42:54.877Z,5.30
2023-05-15T21:45:22.110Z,5.37
2023-05-15T21:47:49.730Z,4.70
2023-05-15T21:50:16.549Z,5.00
2023-05-15T21:52:46.275Z,4.47
2023-05-15T21:55:13.128Z,4.30
2023-05-15T21:57:39.917Z,4.53
2023-05-15T22:00:08.604Z,3.90
2023-05-15T22:02:37.055Z,3.87
2023-05-15T22:05:04.765Z,4.27
2023-05-15T22:07:31.728Z,3.87
2023-05-15T22:09:58.598Z,3.93
2023-05-15T22:12:25.443Z,4.07
2023-05-15T22:14:58.987Z,4.20
2023-05-15T22:17:29.394Z,3.40
2023-05-15T22:20:07.096Z,3.87
2023-05-15T22:22:35.252Z,3.40
2023-05-15T22:25:02.448Z,3.03
2023-05-15T22:27:29.354Z,2.80
2023-05-15T22:29:56.594Z,3.10
2023-05-15T22:32:23.640Z,3.00
2023-05-15T22:34:50.690Z,2.60
2023-05-15T22:37:17.478Z,3.13
2023-05-15T22:39:44.574Z,3.17
2023-05-15T22:42:11.589Z,3.17
2023-05-15T22:44:38.497Z,3.20
2023-05-15T22:47:05.690Z,2.90
2023-05-15T22:49:32.498Z,3.13
2023-05-15T22:51:59.742Z,3.13
2023-05-15T22:54:26.667Z,3.27
2023-05-15T22:56:54.348Z,3.10
2023-05-15T22:59:21.475Z,3.00
2023-05-15T23:01:49.422Z,2.90
2023-05-15T23:04:17.710Z,3.00
2023-05-15T23:06:44.946Z,2.97
2023-05-15T23:09:12.086Z,2.80
2023-05-15T23:11:39.089Z,3.10
2023-05-15T23:14:07.529Z,3.00
2023-05-15T23:16:34.478Z,3.27
2023-05-15T23:19:01.731Z,3.30
2023-05-15T23:21:28.834Z,3.00
2023-05-15T23:23:55.798Z,3.00
2023-05-15T23:26:22.690Z,3.10
2023-05-15T23:28:50.255Z,3.00
2023-05-15T23:31:17.394Z,2.80
2023-05-15T23:33:44.367Z,3.60
2023-05-15T23:36:11.264Z,3.00
2023-05-15T23:38:38.698Z,3.50
2023-05-15T23:41:06.018Z,3.20
2023-05-15T23:43:32.940Z,2.80
2023-05-15T23:45:59.844Z,3.07
2023-05-15T23:48:26.754Z,3.27
2023-05-15T23:50:53.719Z,2.63
2023-05-15T23:53:20.960Z,3.00
2023-05-15T23:55:48.021Z,3.00
2023-05-15T23:58:14.968Z,2.97
